logo
Search for airport 
image banner adimage banner adimage banner ad
image banner ad

MMLRY - Laguna Del Rey

Located in Sierra Mojada, Mexico

ICAO - , IATA -

Data provided by Airmate  

General information

Coordinates: N27°1'23" W103°22'35"
Elevation is 3402 feet MSL.
Magnetic variation is 5° East
View others Airports in Coahuila

Operational data

Special qualification required
Current time UTC:
Current local time:
Weather at : - ( 0 km )
METAR: KXSA 180655Z AUTO 00000KT 10SM SCT030 SCT037 SCT050 20/16 A2990 RMK AO2 T02000159
View NOTAMs / SUP AIP / TFR affecting this airport [VIEW]
Communications frequencies: [VIEW]

Runways:

RWY identifierQFULength (ft)Width (ft)SurfaceLDA (ft)
21216°475932ASPH
0336°475932ASPH

Airport contact information

Address: Sierra Mojada Mexico

Satellite view of MMLRY